Decoded Metar for KFFC (PEACHTREE CITY in GA, USA) (IATA:FFC) | Meteo·Mobile Aviation Weather
aviador You're here:

KFFC Decoded Metar

PEACHTREE CITY in GA, USA
Report Time2019-01-23 05:53:00
UTC Time2019-01-23 06:55:53
Flight Rules mvfr MVFR
Wind110° at 09 Gusting to 17 kt
W.Decomp.*RWY 13: 8.7 kt HW 2.3 kt LCW
W.Rank110° ranks 11
Current wind is above 110° avg. (6.0)
Visibility9999 m
Phenomena:N/A
Clouds:Overcast 018 Hf
Expected CloudBase > 3,200 ft AGL from Temp-Dew spread
Ceiling1,800 ft
Temp08°C (ISA -5)
Dew Point00°C (57% RH)
AAT2.8°C
QNH1028 hPa
Density Alt-194 ft
Elevation860 ft
Report Wrong Elevation
Raw Report
METAR KFFC 230553Z AUTO 11009G17KT 10SM OVC018 08/00 A3035 RMK AO2
SLP281 T00830000 10083 20078 56016=

Extra information for KFFC:More info

Metar Taf Metar & Taf Last 4 Metars F.Rules Stats Wind Profile Meteogram Temp Stats Airport Information Weather charts Add Link Nearby VenuesMetar ALERT Operation Metar Decoded Social comments

AIRNAV info for KFFC